Time;durP1;ratioP1;P1;durP2;ratioP2;P2;SDS_P1;SDS_P2;PMS_P1;PMS_P2;Temp;Humidity;BMP_temperature;BMP_pressure;BME280_temperature;BME280_humidity;BME280_pressure;Samples;Min_cycle;Max_cycle;Signal;HPM_P1;HPM_P2
2023/08/29 00:00:46;;;;;;;1.95;0.68;;;;;;;29.63;44.54;97010.16;2074333;28;21614;-50
2023/08/29 00:01:48;;;;;;;1.35;0.35;;;;;;;29.61;44.53;97006.91;2075364;28;20800;-48
2023/08/29 00:02:49;;;;;;;1.83;0.50;;;;;;;29.59;44.40;97004.50;2084085;28;20077;-49
2023/08/29 00:03:51;;;;;;;1.10;0.65;;;;;;;29.60;44.29;97010.75;2083425;28;20056;-50
2023/08/29 00:04:53;;;;;;;0.90;0.50;;;;;;;29.59;44.53;97003.69;2084846;28;20457;-50
2023/08/29 00:06:00;;;;;;;0.93;0.50;;;;;;;29.57;44.46;97004.00;2083700;28;20411;-50
2023/08/29 00:07:02;;;;;;;1.40;0.70;;;;;;;29.56;44.77;97007.88;2085408;28;20048;-50
2023/08/29 00:08:03;;;;;;;1.98;0.95;;;;;;;29.56;44.71;97005.13;2079329;28;20052;-50
2023/08/29 00:09:05;;;;;;;0.95;0.40;;;;;;;29.58;44.44;97002.88;2076219;28;20053;-48
2023/08/29 00:10:07;;;;;;;2.45;0.60;;;;;;;29.57;44.65;97000.47;2083205;28;20124;-50
2023/08/29 00:11:09;;;;;;;1.92;0.60;;;;;;;29.59;44.40;96998.22;2083998;28;20040;-48
2023/08/29 00:12:10;;;;;;;1.35;0.50;;;;;;;29.57;44.52;97006.72;2082662;28;20049;-49
2023/08/29 00:13:11;;;;;;;1.35;0.40;;;;;;;29.61;44.49;97009.63;2080517;28;20042;-52
2023/08/29 00:14:12;;;;;;;1.17;0.75;;;;;;;29.61;44.59;97007.72;2073732;28;20081;-49
2023/08/29 00:15:14;;;;;;;0.68;0.60;;;;;;;29.59;44.28;97009.97;2076877;28;20045;-49
2023/08/29 00:16:16;;;;;;;1.98;0.50;;;;;;;29.58;44.52;97007.53;2075146;28;20069;-51
2023/08/29 00:17:18;;;;;;;1.25;0.60;;;;;;;29.56;44.39;97013.31;2073550;28;20049;-52
2023/08/29 00:18:19;;;;;;;1.40;0.50;;;;;;;29.54;44.40;97009.28;2074587;28;20042;-49
2023/08/29 00:19:21;;;;;;;2.00;0.50;;;;;;;29.58;44.21;97013.00;2075572;28;20042;-48
2023/08/29 00:20:23;;;;;;;1.20;0.60;;;;;;;29.58;44.40;97013.78;2075574;28;20045;-52
2023/08/29 00:21:25;;;;;;;1.23;0.30;;;;;;;29.57;44.68;97012.19;2077177;28;20076;-49
2023/08/29 00:22:26;;;;;;;0.70;0.70;;;;;;;29.56;44.65;97020.69;2074644;28;20056;-50
2023/08/29 00:23:28;;;;;;;1.00;0.60;;;;;;;29.55;44.40;97019.09;2074862;28;20045;-52
2023/08/29 00:24:29;;;;;;;0.50;0.45;;;;;;;29.53;44.63;97015.84;2074517;28;20051;-52
2023/08/29 00:25:31;;;;;;;1.70;0.50;;;;;;;29.53;44.65;97018.59;2073698;28;20049;-52
2023/08/29 00:26:32;;;;;;;1.40;0.70;;;;;;;29.54;44.58;97017.50;2072582;28;20412;-54
2023/08/29 00:27:34;;;;;;;2.05;0.60;;;;;;;29.56;44.54;97016.06;2074495;28;20053;-54
2023/08/29 00:28:34;;;;;;;0.70;0.28;;;;;;;29.54;44.67;97012.81;2074969;28;20085;-49
2023/08/29 00:29:36;;;;;;;1.65;0.45;;;;;;;29.52;44.46;97014.25;2076611;28;20050;-48
2023/08/29 00:30:38;;;;;;;1.45;0.47;;;;;;;29.54;44.42;97021.03;2072728;28;20068;-50
2023/08/29 00:31:40;;;;;;;0.95;0.47;;;;;;;29.56;44.65;97021.53;2076202;28;20435;-49
2023/08/29 00:32:41;;;;;;;1.00;0.60;;;;;;;29.56;44.61;97021.53;2075045;28;20137;-48
2023/08/29 00:33:43;;;;;;;0.45;0.35;;;;;;;29.55;44.60;97022.63;2072942;28;20572;-50
2023/08/29 00:34:44;;;;;;;0.47;0.40;;;;;;;29.53;44.51;97032.25;2075410;28;20045;-52
2023/08/29 00:35:48;;;;;;;0.73;0.45;;;;;;;29.51;44.57;97026.31;2082911;28;20048;-49
2023/08/29 00:36:49;;;;;;;1.85;0.57;;;;;;;29.50;44.84;97025.47;2079004;28;20083;-49
2023/08/29 00:37:50;;;;;;;0.95;0.52;;;;;;;29.51;44.52;97031.78;2081461;28;20068;-51
2023/08/29 00:38:52;;;;;;;0.63;0.40;;;;;;;29.52;44.51;97030.66;2083304;28;20057;-52
2023/08/29 00:39:53;;;;;;;1.30;0.32;;;;;;;29.53;44.50;97033.09;2076189;28;20184;-49
2023/08/29 00:40:54;;;;;;;2.17;1.17;;;;;;;29.52;44.37;97034.19;2083053;28;20095;-49
2023/08/29 00:41:55;;;;;;;1.20;0.47;;;;;;;29.52;44.93;97027.91;2081338;28;20052;-49
2023/08/29 00:42:57;;;;;;;2.47;0.57;;;;;;;29.50;44.57;97033.69;2083580;28;20420;-52
2023/08/29 00:43:58;;;;;;;1.10;0.30;;;;;;;29.53;44.68;97032.25;2082527;28;20291;-51
2023/08/29 00:45:00;;;;;;;0.77;0.40;;;;;;;29.50;44.35;97024.69;2083439;28;20056;-48
2023/08/29 00:46:01;;;;;;;0.68;0.40;;;;;;;29.50;44.66;97022.75;2079565;28;20057;-48
2023/08/29 00:47:04;;;;;;;1.33;0.30;;;;;;;29.49;44.50;97021.16;2082330;28;20053;-49
2023/08/29 00:48:06;;;;;;;1.42;0.63;;;;;;;29.53;44.83;97026.78;2073636;28;20050;-50
2023/08/29 00:49:09;;;;;;;0.30;0.25;;;;;;;29.52;44.57;97025.97;2075822;28;20164;-48
2023/08/29 00:50:10;;;;;;;1.05;0.35;;;;;;;29.51;44.58;97027.13;2074021;28;20062;-49
2023/08/29 00:51:13;;;;;;;0.93;0.40;;;;;;;29.50;44.65;97030.16;2074792;28;20041;-50
2023/08/29 00:52:14;;;;;;;1.10;0.52;;;;;;;29.50;44.50;97022.75;2073543;28;20535;-48
2023/08/29 00:53:16;;;;;;;0.75;0.63;;;;;;;29.50;44.65;97030.16;2074610;28;20080;-51
2023/08/29 00:54:18;;;;;;;0.93;0.40;;;;;;;29.52;44.51;97034.19;2073988;28;20052;-52
2023/08/29 00:55:21;;;;;;;0.60;0.30;;;;;;;29.51;44.69;97039.97;2074281;28;20567;-50
2023/08/29 00:56:22;;;;;;;0.85;0.30;;;;;;;29.48;44.53;97041.41;2075878;28;20417;-49
2023/08/29 00:57:24;;;;;;;2.03;0.80;;;;;;;29.48;44.60;97035.13;2075382;28;20520;-51
2023/08/29 00:58:25;;;;;;;0.85;0.45;;;;;;;29.47;44.95;97039.78;2075671;28;20435;-51
2023/08/29 00:59:27;;;;;;;1.02;0.43;;;;;;;29.47;44.72;97031.59;2075553;28;20428;-48
2023/08/29 01:00:29;;;;;;;0.68;0.68;;;;;;;29.47;44.75;97033.50;2073100;28;20068;-48
2023/08/29 01:01:34;;;;;;;0.40;0.30;;;;;;;29.47;44.97;97038.97;2074719;28;20074;-49
2023/08/29 01:02:35;;;;;;;0.50;0.30;;;;;;;29.48;44.61;97035.13;2074943;28;20054;-48
2023/08/29 01:03:38;;;;;;;0.73;0.28;;;;;;;29.47;44.65;97031.59;2075621;28;20053;-50
2023/08/29 01:04:39;;;;;;;1.10;0.60;;;;;;;29.47;44.68;97028.84;2076281;28;20046;-51
2023/08/29 01:05:41;;;;;;;0.98;0.40;;;;;;;29.47;44.68;97041.69;2074698;28;20084;-52
2023/08/29 01:06:43;;;;;;;0.30;0.30;;;;;;;29.47;44.64;97033.50;2081767;28;20407;-48
2023/08/29 01:07:45;;;;;;;0.43;0.30;;;;;;;29.47;44.55;97039.78;2082524;28;20080;-50
2023/08/29 01:08:46;;;;;;;1.20;0.47;;;;;;;29.46;44.72;97032.72;2082089;28;20076;-48
2023/08/29 01:09:48;;;;;;;0.80;0.22;;;;;;;29.47;44.66;97031.59;2082152;28;20042;-48
2023/08/29 01:10:57;;;;;;;0.43;0.43;;;;;;;29.45;44.54;97022.91;2083328;28;21493;-49
2023/08/29 01:12:09;;;;;;;1.15;0.30;;;;;;;29.44;44.67;97026.75;2081277;28;20095;-51
2023/08/29 01:13:17;;;;;;;0.82;0.40;;;;;;;29.40;44.61;97023.84;2084164;28;20068;-51
2023/08/29 01:14:26;;;;;;;0.75;0.35;;;;;;;29.41;44.78;97024.66;2081108;28;20526;-50
2023/08/29 01:15:30;;;;;;;1.23;0.50;;;;;;;29.40;44.83;97021.13;2077965;28;20041;-50
2023/08/29 01:16:33;;;;;;;0.77;0.30;;;;;;;29.40;44.75;97017.59;2073107;28;20034;-48
2023/08/29 01:17:40;;;;;;;0.50;0.32;;;;;;;29.43;44.72;97021.63;2074933;28;20551;-51
2023/08/29 01:18:44;;;;;;;0.95;0.50;;;;;;;29.41;44.54;97030.09;2072491;28;20084;-52
2023/08/29 01:19:51;;;;;;;0.45;0.20;;;;;;;29.42;44.58;97025.44;2072903;28;20745;-53
2023/08/29 01:21:06;;;;;;;0.30;0.20;;;;;;;29.41;44.75;97021.91;2075976;28;20061;-50
2023/08/29 01:22:24;;;;;;;1.05;0.35;;;;;;;29.43;44.49;97032.53;2074751;28;20409;-48
2023/08/29 01:23:39;;;;;;;1.17;0.60;;;;;;;29.38;44.88;97030.75;2074911;28;20044;-49
2023/08/29 01:24:47;;;;;;;1.33;0.50;;;;;;;29.37;44.95;97026.41;2074053;28;20076;-49
2023/08/29 01:25:52;;;;;;;0.57;0.50;;;;;;;29.36;44.83;97027.50;2073241;28;20041;-49
2023/08/29 01:26:56;;;;;;;2.70;0.80;;;;;;;29.39;44.99;97029.59;2073585;28;20412;-49
2023/08/29 01:27:58;;;;;;;0.80;0.40;;;;;;;29.37;44.72;97024.47;2073087;28;20135;-48
2023/08/29 01:29:02;;;;;;;2.28;0.50;;;;;;;29.40;44.80;97018.38;2076019;28;20064;-51
2023/08/29 01:30:04;;;;;;;0.65;0.30;;;;;;;29.40;44.85;97028.50;2072564;28;21401;-49
2023/08/29 01:31:06;;;;;;;1.23;0.73;;;;;;;29.42;44.83;97026.28;2075747;28;20838;-50
2023/08/29 01:32:08;;;;;;;1.77;0.60;;;;;;;29.42;44.82;97025.44;2074350;28;20081;-50
2023/08/29 01:33:10;;;;;;;0.43;0.32;;;;;;;29.39;44.78;97021.41;2073820;28;20404;-50
2023/08/29 01:34:12;;;;;;;0.95;0.38;;;;;;;29.38;44.73;97017.09;2071691;28;20167;-48
2023/08/29 01:35:15;;;;;;;0.70;0.40;;;;;;;29.38;44.62;97019.81;2074328;28;20050;-48
2023/08/29 01:36:16;;;;;;;0.73;0.40;;;;;;;29.37;44.98;97023.69;2073209;28;20406;-48
2023/08/29 01:37:17;;;;;;;0.90;0.47;;;;;;;29.36;44.57;97016.59;2076078;28;20049;-53
2023/08/29 01:38:18;;;;;;;1.23;0.50;;;;;;;29.37;44.91;97027.22;2074477;28;20503;-50
2023/08/29 01:39:20;;;;;;;0.63;0.40;;;;;;;29.37;44.79;97013.56;2081557;28;20132;-52
2023/08/29 01:40:21;;;;;;;0.35;0.30;;;;;;;29.37;44.84;97012.75;2077151;28;20129;-52
2023/08/29 01:41:23;;;;;;;1.98;0.30;;;;;;;29.37;44.78;97024.47;2080569;28;20135;-48
2023/08/29 01:42:25;;;;;;;0.45;0.20;;;;;;;29.38;44.55;97025.28;2079620;28;20054;-50
2023/08/29 01:43:27;;;;;;;1.65;0.63;;;;;;;29.36;44.78;97027.50;2076240;28;20103;-48
2023/08/29 01:44:28;;;;;;;0.55;0.35;;;;;;;29.39;44.64;97021.41;2082824;28;20144;-49
2023/08/29 01:45:30;;;;;;;1.10;0.50;;;;;;;29.38;44.76;97019.81;2085246;28;20265;-49
2023/08/29 01:46:30;;;;;;;0.68;0.20;;;;;;;29.38;44.60;97019.81;2084073;28;20041;-49
2023/08/29 01:47:32;;;;;;;0.40;0.20;;;;;;;29.38;44.76;97014.34;2084832;28;20049;-51
2023/08/29 01:48:34;;;;;;;0.43;0.30;;;;;;;29.38;44.58;97017.88;2085541;28;20211;-52
2023/08/29 01:49:37;;;;;;;1.95;0.50;;;;;;;29.37;44.92;97024.47;2083705;28;20049;-48
2023/08/29 01:50:40;;;;;;;0.82;0.50;;;;;;;29.36;44.71;97014.69;2084027;28;20048;-52
2023/08/29 01:51:42;;;;;;;0.40;0.30;;;;;;;29.36;44.86;97016.59;2086654;28;20515;-48
2023/08/29 01:52:43;;;;;;;1.10;0.28;;;;;;;29.35;44.85;97031.38;2085312;28;20074;-50
2023/08/29 01:53:45;;;;;;;1.85;0.75;;;;;;;29.36;44.77;97027.50;2085295;28;20359;-53
2023/08/29 01:54:45;;;;;;;0.50;0.50;;;;;;;29.36;44.80;97038.44;2085549;28;20080;-52
2023/08/29 01:55:50;;;;;;;1.13;1.00;;;;;;;29.38;44.87;97025.28;2085170;28;20060;-51
2023/08/29 01:56:53;;;;;;;1.30;0.38;;;;;;;29.37;44.73;97029.13;2083812;28;20064;-49
2023/08/29 01:57:58;;;;;;;0.68;0.40;;;;;;;29.35;44.81;97036.81;2085780;28;20056;-49
2023/08/29 01:58:59;;;;;;;0.47;0.32;;;;;;;29.31;45.16;97025.72;2086096;28;20461;-48
2023/08/29 02:00:01;;;;;;;1.45;0.60;;;;;;;29.33;44.91;97030.88;2085448;28;20587;-51
2023/08/29 02:01:03;;;;;;;1.10;0.40;;;;;;;29.33;44.91;97031.66;2084456;28;20068;-49
2023/08/29 02:02:04;;;;;;;0.50;0.25;;;;;;;29.34;44.94;97024.31;2084757;28;20057;-53
2023/08/29 02:03:06;;;;;;;2.40;0.40;;;;;;;29.34;44.62;97038.75;2082649;28;20107;-49
2023/08/29 02:04:07;;;;;;;1.08;0.30;;;;;;;29.34;44.89;97035.22;2082120;28;20053;-48
2023/08/29 02:05:09;;;;;;;0.60;0.40;;;;;;;29.33;44.76;97034.41;2075369;28;20096;-50
2023/08/29 02:06:10;;;;;;;1.10;0.40;;;;;;;29.32;44.91;97032.78;2075907;28;20927;-49
2023/08/29 02:07:12;;;;;;;0.32;0.32;;;;;;;29.31;45.20;97030.38;2075557;28;20056;-49
2023/08/29 02:08:13;;;;;;;1.13;0.43;;;;;;;29.30;44.83;97028.75;2078481;28;20541;-50
2023/08/29 02:09:16;;;;;;;0.32;0.15;;;;;;;29.30;44.96;97031.50;2076484;28;20049;-49
2023/08/29 02:10:17;;;;;;;0.82;0.30;;;;;;;29.32;44.84;97032.00;2078092;28;20050;-52
2023/08/29 02:11:19;;;;;;;1.95;0.68;;;;;;;29.32;44.97;97021.06;2076201;28;20153;-52
2023/08/29 02:12:19;;;;;;;0.25;0.20;;;;;;;29.30;44.96;97029.56;2077923;28;20073;-51
2023/08/29 02:13:22;;;;;;;0.30;0.30;;;;;;;29.30;44.97;97015.91;2077511;28;20311;-49
2023/08/29 02:14:24;;;;;;;1.20;0.50;;;;;;;29.29;44.97;97027.97;2077477;28;20099;-48
2023/08/29 02:15:24;;;;;;;0.60;0.32;;;;;;;29.29;44.91;97027.97;2077882;28;20052;-48
2023/08/29 02:16:26;;;;;;;1.20;0.30;;;;;;;29.30;44.91;97028.75;2077905;28;20136;-49
2023/08/29 02:17:27;;;;;;;1.55;0.57;;;;;;;29.33;44.91;97019.94;2077041;28;20109;-50
2023/08/29 02:18:29;;;;;;;0.82;0.47;;;;;;;29.31;44.92;97016.72;2078863;28;20310;-48
2023/08/29 02:19:29;;;;;;;0.55;0.22;;;;;;;29.29;44.93;97030.69;2077661;28;20076;-50
2023/08/29 02:20:31;;;;;;;1.23;0.57;;;;;;;29.29;44.90;97027.16;2076085;28;20045;-48
2023/08/29 02:21:32;;;;;;;0.98;0.50;;;;;;;29.27;45.07;97022.00;2076897;28;20532;-49
2023/08/29 02:22:34;;;;;;;1.25;0.60;;;;;;;29.29;44.97;97019.78;2076829;28;20049;-49
2023/08/29 02:23:35;;;;;;;0.63;0.45;;;;;;;29.29;45.04;97018.97;2083075;28;20061;-49
2023/08/29 02:24:36;;;;;;;0.63;0.43;;;;;;;29.29;44.96;97021.69;2087910;28;20530;-51
2023/08/29 02:25:37;;;;;;;0.75;0.20;;;;;;;29.29;45.03;97029.88;2087236;28;20092;-53
2023/08/29 02:26:39;;;;;;;0.95;0.40;;;;;;;29.29;44.86;97021.69;2079803;28;20072;-50
2023/08/29 02:27:40;;;;;;;0.40;0.30;;;;;;;29.28;44.94;97025.53;2076534;28;20060;-49
2023/08/29 02:28:43;;;;;;;0.40;0.30;;;;;;;29.28;44.88;97022.81;2086837;28;20041;-49
2023/08/29 02:29:44;;;;;;;1.40;0.52;;;;;;;29.24;45.06;97025.34;2084800;28;20057;-51
2023/08/29 02:30:45;;;;;;;0.52;0.20;;;;;;;29.27;44.83;97029.38;2080178;28;20044;-49
2023/08/29 02:31:46;;;;;;;0.65;0.40;;;;;;;29.28;44.99;97025.53;2077403;28;20045;-52
2023/08/29 02:32:47;;;;;;;0.70;0.47;;;;;;;29.28;45.12;97028.25;2079666;28;20576;-49
2023/08/29 02:33:49;;;;;;;1.38;0.50;;;;;;;29.25;44.88;97024.22;2076209;28;20156;-48
2023/08/29 02:34:50;;;;;;;1.98;0.30;;;;;;;29.26;44.94;97025.06;2078193;28;20052;-53
2023/08/29 02:35:52;;;;;;;0.52;0.25;;;;;;;29.25;44.95;97026.16;2077941;28;20048;-50
2023/08/29 02:36:53;;;;;;;0.57;0.30;;;;;;;29.25;45.15;97026.97;2085194;28;20076;-52
2023/08/29 02:37:55;;;;;;;0.70;0.40;;;;;;;29.24;45.08;97024.56;2085650;28;20071;-49
2023/08/29 02:38:55;;;;;;;1.10;0.52;;;;;;;29.24;45.16;97036.28;2085421;28;20408;-52
2023/08/29 02:39:57;;;;;;;0.98;0.30;;;;;;;29.25;45.06;97031.63;2086084;28;20127;-49
2023/08/29 02:40:58;;;;;;;0.95;0.25;;;;;;;29.25;45.02;97028.88;2087679;28;20048;-50
2023/08/29 02:42:00;;;;;;;0.85;0.30;;;;;;;29.25;45.14;97028.88;2085839;28;20064;-51
2023/08/29 02:43:01;;;;;;;0.45;0.30;;;;;;;29.23;45.09;97029.22;2087330;28;20582;-50
2023/08/29 02:44:03;;;;;;;1.30;0.40;;;;;;;29.22;45.34;97033.03;2085117;28;20051;-50
2023/08/29 02:45:06;;;;;;;0.40;0.30;;;;;;;29.23;45.07;97031.94;2087335;28;20059;-52
2023/08/29 02:46:07;;;;;;;1.05;0.50;;;;;;;29.22;45.24;97026.78;2084781;28;20056;-52
2023/08/29 02:47:09;;;;;;;0.55;0.38;;;;;;;29.22;44.97;97026.78;2085956;28;20053;-53
2023/08/29 02:48:10;;;;;;;0.17;0.17;;;;;;;29.23;44.96;97021.03;2083835;28;20065;-50
2023/08/29 02:49:11;;;;;;;0.77;0.57;;;;;;;29.22;45.12;97024.06;2077101;28;20728;-49
2023/08/29 02:50:12;;;;;;;1.17;0.60;;;;;;;29.22;45.09;97022.13;2078888;28;20531;-50
2023/08/29 02:51:14;;;;;;;0.93;0.47;;;;;;;29.22;45.05;97024.06;2076565;28;20136;-49
2023/08/29 02:52:15;;;;;;;0.60;0.50;;;;;;;29.22;45.05;97026.78;2078499;28;20128;-52
2023/08/29 02:53:17;;;;;;;1.50;0.70;;;;;;;29.22;45.03;97024.06;2077513;28;20456;-51
2023/08/29 02:54:19;;;;;;;0.82;0.38;;;;;;;29.21;45.05;97019.72;2077492;28;20804;-51
2023/08/29 02:55:20;;;;;;;0.65;0.25;;;;;;;29.21;45.15;97025.19;2076122;28;20159;-50
2023/08/29 02:56:21;;;;;;;0.30;0.28;;;;;;;29.22;45.12;97029.50;2078783;28;20620;-48
2023/08/29 02:57:22;;;;;;;1.88;0.50;;;;;;;29.20;44.88;97029.00;2076535;28;20088;-48
2023/08/29 02:58:24;;;;;;;1.05;0.30;;;;;;;29.21;45.26;97019.72;2078841;28;20041;-52
2023/08/29 02:59:27;;;;;;;1.40;1.10;;;;;;;29.21;45.13;97022.44;2076991;28;20042;-48
2023/08/29 03:00:29;;;;;;;0.30;0.20;;;;;;;29.19;44.99;97017.28;2078798;28;20041;-48
2023/08/29 03:01:30;;;;;;;0.65;0.28;;;;;;;29.20;45.00;97018.09;2078277;28;20056;-52
2023/08/29 03:02:32;;;;;;;2.95;0.63;;;;;;;29.20;45.17;97021.66;2079291;28;20531;-49
2023/08/29 03:03:33;;;;;;;0.57;0.30;;;;;;;29.18;45.16;97027.41;2078461;28;20053;-49
2023/08/29 03:04:35;;;;;;;0.30;0.20;;;;;;;29.20;45.12;97018.09;2077017;28;20057;-51
2023/08/29 03:05:35;;;;;;;0.77;0.55;;;;;;;29.20;44.98;97029.00;2076420;28;20053;-49
2023/08/29 03:06:37;;;;;;;1.17;0.40;;;;;;;29.18;44.98;97021.94;2078543;28;20050;-51
2023/08/29 03:07:39;;;;;;;1.83;0.40;;;;;;;29.18;45.28;97023.88;2076780;28;20455;-52
2023/08/29 03:08:40;;;;;;;0.68;0.32;;;;;;;29.17;44.99;97020.34;2078319;28;20045;-49
2023/08/29 03:09:42;;;;;;;0.93;0.73;;;;;;;29.18;45.13;97021.16;2076148;28;20052;-48
2023/08/29 03:10:43;;;;;;;0.28;0.28;;;;;;;29.18;44.88;97021.16;2076312;28;20473;-49
2023/08/29 03:11:45;;;;;;;1.00;0.32;;;;;;;29.17;45.24;97025.81;2076543;28;20049;-52
2023/08/29 03:12:45;;;;;;;0.88;0.40;;;;;;;29.16;45.23;97024.19;2077524;28;20060;-52
2023/08/29 03:13:47;;;;;;;1.88;0.80;;;;;;;29.16;45.14;97031.56;2077174;28;20049;-50
2023/08/29 03:14:53;;;;;;;0.60;0.35;;;;;;;29.15;45.23;97027.25;2079217;28;20045;-50
2023/08/29 03:15:55;;;;;;;0.40;0.20;;;;;;;29.15;45.26;97022.56;2076870;28;20057;-52
2023/08/29 03:16:55;;;;;;;0.60;0.43;;;;;;;29.17;45.23;97022.28;2077698;28;20077;-50
2023/08/29 03:17:59;;;;;;;2.47;0.70;;;;;;;29.17;45.20;97028.53;2077730;28;20042;-52
2023/08/29 03:19:00;;;;;;;0.65;0.45;;;;;;;29.16;45.08;97026.91;2079074;28;20049;-48
2023/08/29 03:20:01;;;;;;;0.20;0.15;;;;;;;29.17;45.28;97025.00;2077787;28;20045;-49
2023/08/29 03:21:06;;;;;;;1.35;0.68;;;;;;;29.17;45.40;97031.28;2078675;28;20124;-51
2023/08/29 03:22:07;;;;;;;0.52;0.40;;;;;;;29.15;45.34;97021.78;2077156;28;20523;-49
2023/08/29 03:23:09;;;;;;;0.75;0.30;;;;;;;29.14;45.07;97025.59;2075382;28;20046;-53
2023/08/29 03:24:10;;;;;;;1.33;0.60;;;;;;;29.13;45.15;97030.25;2076733;28;20049;-49
2023/08/29 03:25:10;;;;;;;1.10;0.75;;;;;;;29.14;45.01;97029.16;2077921;28;20046;-51
2023/08/29 03:26:12;;;;;;;0.75;0.43;;;;;;;29.15;45.42;97028.03;2076741;28;20125;-49
2023/08/29 03:27:13;;;;;;;0.80;0.57;;;;;;;29.16;45.17;97032.38;2075038;28;20042;-48
2023/08/29 03:28:15;;;;;;;1.25;0.28;;;;;;;29.15;45.11;97038.16;2076715;28;20564;-48
2023/08/29 03:29:16;;;;;;;0.38;0.30;;;;;;;29.14;45.27;97037.34;2077835;28;20065;-49
2023/08/29 03:30:19;;;;;;;1.02;0.38;;;;;;;29.14;45.07;97037.34;2079181;28;20052;-49
2023/08/29 03:31:20;;;;;;;0.43;0.30;;;;;;;29.14;45.33;97033.78;2074259;28;20183;-48
2023/08/29 03:32:21;;;;;;;2.13;0.60;;;;;;;29.12;45.37;97033.31;2076577;28;20073;-50
2023/08/29 03:33:23;;;;;;;1.35;0.40;;;;;;;29.14;44.94;97029.16;2077364;28;20049;-50
2023/08/29 03:34:24;;;;;;;0.60;0.60;;;;;;;29.14;45.16;97040.09;2078077;28;20149;-49
2023/08/29 03:35:26;;;;;;;1.17;0.50;;;;;;;29.13;45.20;97043.13;2076994;28;20100;-50
2023/08/29 03:36:28;;;;;;;1.95;0.43;;;;;;;29.14;45.08;97045.53;2077265;28;20052;-49
2023/08/29 03:37:29;;;;;;;0.77;0.50;;;;;;;29.12;45.32;97039.59;2076537;28;20049;-50
2023/08/29 03:38:30;;;;;;;1.17;0.52;;;;;;;29.12;45.26;97045.03;2077176;28;20052;-52
2023/08/29 03:39:31;;;;;;;0.90;0.30;;;;;;;29.11;45.42;97040.72;2078216;28;20076;-52
2023/08/29 03:40:33;;;;;;;0.35;0.30;;;;;;;29.13;45.16;97046.66;2076595;28;20204;-48
2023/08/29 03:41:34;;;;;;;0.90;0.47;;;;;;;29.11;45.21;97046.16;2081836;28;20105;-49
2023/08/29 03:42:35;;;;;;;1.15;0.75;;;;;;;29.10;45.18;97052.72;2085635;28;20044;-48
2023/08/29 03:43:36;;;;;;;1.05;0.40;;;;;;;29.10;45.28;97052.72;2084279;28;20091;-49
2023/08/29 03:44:38;;;;;;;0.68;0.57;;;;;;;29.12;45.18;97052.44;2086018;28;20057;-51
2023/08/29 03:45:40;;;;;;;0.70;0.38;;;;;;;29.11;45.16;97053.53;2086451;28;20084;-48
2023/08/29 03:46:42;;;;;;;1.73;0.40;;;;;;;29.10;45.26;97044.53;2087298;28;20234;-48
2023/08/29 03:47:43;;;;;;;1.27;0.50;;;;;;;29.09;45.11;97048.41;2085051;28;20048;-48
2023/08/29 03:48:45;;;;;;;0.95;0.40;;;;;;;29.09;45.49;97047.59;2085639;28;20521;-49
2023/08/29 03:49:46;;;;;;;1.85;0.50;;;;;;;29.10;45.22;97046.47;2078662;28;20053;-50
2023/08/29 03:50:49;;;;;;;1.10;0.40;;;;;;;29.10;45.16;97047.28;2076758;28;20131;-49
2023/08/29 03:51:50;;;;;;;0.43;0.20;;;;;;;29.08;45.16;97037.78;2077366;28;20093;-52
2023/08/29 03:52:52;;;;;;;1.23;0.52;;;;;;;29.09;45.42;97045.66;2077937;28;20045;-49
2023/08/29 03:53:53;;;;;;;1.75;0.65;;;;;;;29.08;45.30;97041.31;2076627;28;20066;-48
2023/08/29 03:54:54;;;;;;;0.80;0.38;;;;;;;29.09;45.33;97042.94;2077289;28;20061;-48
2023/08/29 03:55:59;;;;;;;0.68;0.35;;;;;;;29.11;45.19;97043.44;2078051;28;20060;-48
2023/08/29 03:57:00;;;;;;;2.15;0.55;;;;;;;29.10;45.22;97038.28;2077492;28;20101;-53
2023/08/29 03:58:02;;;;;;;0.55;0.40;;;;;;;29.07;45.40;97042.44;2076523;28;20045;-48
2023/08/29 03:59:04;;;;;;;1.08;0.55;;;;;;;29.08;45.26;97038.56;2076042;28;20049;-49
2023/08/29 04:00:09;;;;;;;1.50;0.40;;;;;;;29.07;45.29;97034.25;2075601;28;20099;-48
2023/08/29 04:01:11;;;;;;;0.93;0.50;;;;;;;29.07;45.47;97036.19;2078323;28;20052;-49
2023/08/29 04:02:13;;;;;;;1.48;0.50;;;;;;;29.08;45.45;97033.13;2077838;28;20083;-49
2023/08/29 04:03:14;;;;;;;0.85;0.47;;;;;;;29.06;45.22;97024.47;2078356;28;20038;-50
2023/08/29 04:04:15;;;;;;;0.90;0.30;;;;;;;29.07;45.36;97036.19;2077513;28;20061;-49
2023/08/29 04:05:17;;;;;;;1.95;0.45;;;;;;;29.06;45.21;97040.84;2077528;28;20049;-50
2023/08/29 04:06:19;;;;;;;1.48;0.57;;;;;;;29.04;45.33;97036.81;2079071;28;20431;-50
2023/08/29 04:07:20;;;;;;;1.27;0.40;;;;;;;29.06;45.43;97035.38;2076067;28;20397;-52
2023/08/29 04:08:22;;;;;;;0.52;0.38;;;;;;;29.05;45.21;97033.75;2075931;28;20119;-50
2023/08/29 04:09:23;;;;;;;2.72;0.93;;;;;;;29.04;45.16;97032.13;2076132;28;20052;-48
2023/08/29 04:10:25;;;;;;;1.30;0.85;;;;;;;29.03;45.38;97038.72;2078139;28;20537;-49
2023/08/29 04:11:25;;;;;;;0.40;0.40;;;;;;;29.06;45.27;97040.84;2077561;28;20042;-48
2023/08/29 04:12:27;;;;;;;0.75;0.32;;;;;;;29.06;45.28;97035.38;2077381;28;20072;-51
2023/08/29 04:13:28;;;;;;;0.43;0.40;;;;;;;29.05;45.27;97039.19;2076802;28;20045;-48
2023/08/29 04:14:31;;;;;;;1.73;0.40;;;;;;;29.06;45.21;97035.38;2076105;28;20478;-50
2023/08/29 04:15:32;;;;;;;1.95;0.40;;;;;;;29.06;45.40;97040.00;2074391;28;20512;-49
2023/08/29 04:16:35;;;;;;;0.90;0.60;;;;;;;29.04;45.19;97034.88;2075974;28;20675;-52
2023/08/29 04:17:36;;;;;;;0.82;0.50;;;;;;;29.03;45.42;97036.00;2075266;28;20045;-48
2023/08/29 04:18:38;;;;;;;2.33;0.88;;;;;;;29.04;45.41;97037.59;2078516;28;20053;-51
2023/08/29 04:19:39;;;;;;;2.47;0.40;;;;;;;29.04;45.34;97031.34;2076802;28;20475;-49
2023/08/29 04:20:40;;;;;;;1.95;0.50;;;;;;;29.03;45.38;97038.72;2077614;28;20060;-49
2023/08/29 04:21:41;;;;;;;1.88;0.55;;;;;;;29.02;45.34;97042.53;2075610;28;20072;-49
2023/08/29 04:22:43;;;;;;;0.98;0.50;;;;;;;29.02;45.42;97039.78;2077818;28;20430;-48
2023/08/29 04:23:44;;;;;;;0.77;0.40;;;;;;;29.02;45.27;97037.06;2075153;28;20073;-48
2023/08/29 04:24:48;;;;;;;2.58;0.52;;;;;;;29.03;45.21;97035.13;2076402;28;20404;-58
2023/08/29 04:25:49;;;;;;;0.85;0.30;;;;;;;29.01;45.28;97037.41;2074835;28;20072;-50
2023/08/29 04:26:51;;;;;;;0.32;0.28;;;;;;;29.01;45.43;97038.19;2073493;28;20053;-51
2023/08/29 04:27:52;;;;;;;2.05;0.50;;;;;;;29.01;45.30;97037.41;2073838;28;20423;-51
2023/08/29 04:28:54;;;;;;;1.13;0.60;;;;;;;29.01;45.51;97038.19;2077598;28;20096;-48
2023/08/29 04:29:55;;;;;;;1.77;0.60;;;;;;;29.00;45.36;97033.84;2074558;28;20041;-49
2023/08/29 04:30:57;;;;;;;0.60;0.30;;;;;;;29.02;45.38;97042.53;2077890;28;20133;-52
2023/08/29 04:31:59;;;;;;;1.88;1.15;;;;;;;29.04;45.32;97043.06;2074149;28;20069;-50
2023/08/29 04:33:01;;;;;;;1.20;0.50;;;;;;;29.02;45.37;97044.44;2078805;28;20049;-50
2023/08/29 04:34:02;;;;;;;1.15;0.47;;;;;;;29.01;45.50;97042.84;2074431;28;20053;-52
2023/08/29 04:35:05;;;;;;;1.42;0.43;;;;;;;29.00;45.50;97047.47;2078760;28;20120;-48
2023/08/29 04:36:08;;;;;;;1.38;0.45;;;;;;;29.00;45.33;97049.41;2076119;28;20045;-49
2023/08/29 04:37:10;;;;;;;3.33;0.70;;;;;;;28.99;45.23;97048.59;2077014;28;20041;-48
2023/08/29 04:38:11;;;;;;;0.93;0.40;;;;;;;29.00;45.38;97047.47;2076436;28;20053;-48
2023/08/29 04:39:13;;;;;;;0.93;0.45;;;;;;;29.01;45.46;97048.31;2078672;28;20497;-48
2023/08/29 04:40:17;;;;;;;2.72;0.88;;;;;;;29.00;45.37;97052.94;2075615;28;20113;-49
2023/08/29 04:41:19;;;;;;;1.73;0.73;;;;;;;28.98;45.51;97057.91;2077891;28;20468;-49
2023/08/29 04:42:20;;;;;;;1.23;0.40;;;;;;;28.97;45.46;97053.56;2076622;28;20041;-51
2023/08/29 04:43:22;;;;;;;2.15;0.57;;;;;;;28.98;45.61;97057.91;2073682;28;20759;-51
2023/08/29 04:44:24;;;;;;;0.85;0.35;;;;;;;28.99;45.43;97062.25;2077211;28;20053;-52
2023/08/29 04:45:26;;;;;;;2.65;0.95;;;;;;;28.99;45.40;97056.00;2077919;28;20561;-48
2023/08/29 04:46:27;;;;;;;1.10;0.50;;;;;;;28.97;45.44;97059.03;2076034;28;20041;-48
2023/08/29 04:47:30;;;;;;;1.42;0.70;;;;;;;28.97;45.39;97064.47;2074857;28;20046;-50
2023/08/29 04:48:31;;;;;;;0.95;0.50;;;;;;;28.97;45.32;97059.03;2075995;28;20052;-51
2023/08/29 04:49:34;;;;;;;1.15;0.60;;;;;;;28.98;45.27;97065.31;2077743;28;20128;-48
2023/08/29 04:50:35;;;;;;;3.08;0.85;;;;;;;28.95;45.50;97056.63;2075259;28;20045;-49
2023/08/29 04:51:37;;;;;;;0.85;0.38;;;;;;;28.98;45.45;97063.38;2078164;28;20041;-49
2023/08/29 04:52:38;;;;;;;0.68;0.40;;;;;;;28.96;45.44;97058.22;2076405;28;20049;-51